createdAt,value
2018-12-20T00:02:28.309Z,289.50
2018-12-20T00:05:00.083Z,273.00
2018-12-20T00:07:31.715Z,288.25
2018-12-20T00:10:04.056Z,283.75
2018-12-20T00:12:35.805Z,273.00
2018-12-20T00:15:07.897Z,296.25
2018-12-20T00:17:44.282Z,277.00
2018-12-20T00:20:15.855Z,295.00
2018-12-20T00:22:48.085Z,287.50
2018-12-20T00:25:20.233Z,279.25
2018-12-20T00:27:52.956Z,272.75
2018-12-20T00:30:24.582Z,282.00
2018-12-20T00:32:56.258Z,278.25
2018-12-20T00:35:28.281Z,287.50
2018-12-20T00:37:59.864Z,274.75
2018-12-20T00:40:31.683Z,280.50
2018-12-20T00:43:03.450Z,269.25
2018-12-20T00:45:36.068Z,268.00
2018-12-20T00:48:09.194Z,273.00
2018-12-20T00:50:41.028Z,283.75
2018-12-20T00:53:12.967Z,317.25
2018-12-20T00:55:44.857Z,294.25
2018-12-20T00:58:16.642Z,310.25
2018-12-20T01:00:48.415Z,282.00
2018-12-20T01:03:20.291Z,269.50
2018-12-20T01:05:52.010Z,275.75
2018-12-20T01:08:23.798Z,262.25
2018-12-20T01:10:55.747Z,260.00
2018-12-20T01:13:27.990Z,277.25
2018-12-20T01:16:00.190Z,282.75
2018-12-20T01:18:31.700Z,263.00
2018-12-20T01:21:03.789Z,267.75
2018-12-20T01:23:36.082Z,277.25
2018-12-20T01:26:08.403Z,289.00
2018-12-20T01:28:39.976Z,309.75
2018-12-20T01:31:12.021Z,292.25
2018-12-20T01:33:42.452Z,289.25
2018-12-20T01:36:14.350Z,280.75
2018-12-20T01:38:46.382Z,285.75
2018-12-20T01:41:18.431Z,297.25
2018-12-20T01:43:50.451Z,314.00
2018-12-20T01:46:23.342Z,340.50
2018-12-20T01:48:55.653Z,347.00
2018-12-20T01:51:27.603Z,362.75
2018-12-20T01:53:59.474Z,345.00
2018-12-20T01:56:31.218Z,359.75
2018-12-20T01:59:03.394Z,355.00
2018-12-20T02:01:35.145Z,379.75
2018-12-20T02:04:07.233Z,372.75
2018-12-20T02:06:39.702Z,378.00
2018-12-20T02:09:11.668Z,361.50
2018-12-20T02:11:43.944Z,381.25
2018-12-20T02:14:15.622Z,398.00
2018-12-20T02:16:47.872Z,423.20
2018-12-20T02:19:19.735Z,416.50
2018-12-20T02:21:52.057Z,380.25
2018-12-20T02:24:24.187Z,392.00
2018-12-20T02:26:56.303Z,366.50
2018-12-20T02:29:43.595Z,374.25
2018-12-20T02:32:15.925Z,365.00
2018-12-20T02:34:47.524Z,377.75
2018-12-20T02:37:19.209Z,397.75
2018-12-20T02:39:51.408Z,390.25
2018-12-20T02:42:23.599Z,411.00
2018-12-20T02:44:56.126Z,438.80
2018-12-20T02:47:30.929Z,464.60
2018-12-20T02:50:02.462Z,438.60
2018-12-20T02:52:34.784Z,464.25
2018-12-20T02:55:06.462Z,453.40
2018-12-20T02:57:38.038Z,445.60
2018-12-20T03:00:09.890Z,464.20
2018-12-20T03:02:41.995Z,453.00
2018-12-20T03:05:13.442Z,505.40
2018-12-20T03:07:45.102Z,534.00
2018-12-20T03:10:16.709Z,518.20
2018-12-20T03:12:48.652Z,494.60
2018-12-20T03:15:20.596Z,496.40
2018-12-20T03:17:52.785Z,516.40
2018-12-20T03:20:24.911Z,485.00
2018-12-20T03:22:56.665Z,476.00
2018-12-20T03:25:28.727Z,448.50
2018-12-20T03:28:00.557Z,489.20
2018-12-20T03:30:32.052Z,475.50
2018-12-20T03:33:03.620Z,459.25
2018-12-20T03:35:35.442Z,474.25
2018-12-20T03:38:07.202Z,474.75
2018-12-20T03:40:38.677Z,451.00
2018-12-20T03:43:10.274Z,446.60
2018-12-20T03:45:41.829Z,417.60
2018-12-20T03:48:14.023Z,418.20
2018-12-20T03:50:45.733Z,428.25
2018-12-20T03:53:18.435Z,419.20
2018-12-20T03:55:50.492Z,415.00
2018-12-20T03:58:22.155Z,387.25
2018-12-20T04:00:53.839Z,382.25
2018-12-20T04:03:26.162Z,403.75
2018-12-20T04:06:02.567Z,387.00
2018-12-20T04:08:37.322Z,393.75
2018-12-20T04:11:08.806Z,378.00
2018-12-20T04:13:40.521Z,357.00
2018-12-20T04:16:12.810Z,365.75
2018-12-20T04:18:44.876Z,368.50
2018-12-20T04:21:17.143Z,394.75
2018-12-20T04:23:49.044Z,366.25
2018-12-20T04:26:20.546Z,388.00
2018-12-20T04:28:57.245Z,344.00
2018-12-20T04:31:29.469Z,336.75
2018-12-20T04:34:01.107Z,365.75
2018-12-20T04:36:32.895Z,352.50
2018-12-20T04:39:05.494Z,347.00
2018-12-20T04:41:37.489Z,392.50
2018-12-20T04:44:11.852Z,378.50
2018-12-20T04:46:43.933Z,377.25
2018-12-20T04:49:16.133Z,340.25
2018-12-20T04:51:47.845Z,358.50
2018-12-20T04:54:19.660Z,332.25
2018-12-20T04:56:51.206Z,307.50
2018-12-20T04:59:23.103Z,342.50
2018-12-20T05:01:54.869Z,348.00
2018-12-20T05:04:26.687Z,299.75
2018-12-20T05:06:58.553Z,292.75
2018-12-20T05:09:29.980Z,289.50
2018-12-20T05:12:01.580Z,274.25
2018-12-20T05:14:33.724Z,261.00
2018-12-20T05:17:05.995Z,268.50
2018-12-20T05:19:38.215Z,299.50
2018-12-20T05:22:10.320Z,310.50
2018-12-20T05:24:42.057Z,296.00
2018-12-20T05:27:13.604Z,278.75
2018-12-20T05:29:45.533Z,276.25
2018-12-20T05:32:17.294Z,224.50
2018-12-20T05:34:48.993Z,253.75
2018-12-20T05:37:21.104Z,182.00
2018-12-20T05:39:57.917Z,183.75
2018-12-20T05:42:29.866Z,180.40
2018-12-20T05:45:01.742Z,174.20
2018-12-20T05:47:33.845Z,182.00
2018-12-20T05:50:06.246Z,187.75
2018-12-20T05:52:37.750Z,196.50
2018-12-20T05:55:09.618Z,190.50
2018-12-20T05:57:41.912Z,213.25
2018-12-20T06:00:14.186Z,193.25
2018-12-20T06:02:46.498Z,200.00
2018-12-20T06:05:18.386Z,204.25
2018-12-20T06:07:50.592Z,205.25
2018-12-20T06:10:22.200Z,199.00
2018-12-20T06:12:54.113Z,173.75
2018-12-20T06:15:26.129Z,171.60
2018-12-20T06:17:57.683Z,184.40
2018-12-20T06:20:29.987Z,156.20
2018-12-20T06:23:02.224Z,168.40
2018-12-20T06:25:33.995Z,167.60
2018-12-20T06:28:06.270Z,175.40
2018-12-20T06:30:37.923Z,143.00
2018-12-20T06:33:10.179Z,159.00
2018-12-20T06:35:42.270Z,166.60
2018-12-20T06:38:13.849Z,148.00
2018-12-20T06:40:45.659Z,151.20
2018-12-20T06:43:17.360Z,140.80
2018-12-20T06:45:48.973Z,155.60
2018-12-20T06:48:20.857Z,153.20
2018-12-20T06:50:53.571Z,149.40
2018-12-20T06:53:25.441Z,157.40
2018-12-20T06:55:57.275Z,148.80
2018-12-20T06:58:30.408Z,149.00
2018-12-20T07:01:03.660Z,155.60
2018-12-20T07:03:35.799Z,152.20
2018-12-20T07:06:08.753Z,162.60
2018-12-20T07:08:40.530Z,163.00
2018-12-20T07:11:12.887Z,155.20
2018-12-20T07:13:44.600Z,162.80
2018-12-20T07:16:16.312Z,164.80
2018-12-20T07:18:47.887Z,164.00
2018-12-20T07:21:20.418Z,176.80
2018-12-20T07:23:52.009Z,167.20
2018-12-20T07:26:24.135Z,161.80
2018-12-20T07:28:56.080Z,170.40
2018-12-20T07:31:29.049Z,167.00
2018-12-20T07:34:00.820Z,164.80
2018-12-20T07:36:32.278Z,165.60
2018-12-20T07:39:03.663Z,155.20
2018-12-20T07:41:35.194Z,164.60
2018-12-20T07:44:06.834Z,162.00
2018-12-20T07:46:38.492Z,163.40
2018-12-20T07:49:09.846Z,158.40
2018-12-20T07:51:42.315Z,172.00
2018-12-20T07:54:13.783Z,161.40
2018-12-20T07:56:45.808Z,157.60
2018-12-20T07:59:23.489Z,156.80
2018-12-20T08:01:50.962Z,142.60
2018-12-20T08:04:22.435Z,144.80
2018-12-20T08:06:54.265Z,134.80
2018-12-20T08:09:25.884Z,142.40
2018-12-20T08:11:57.792Z,149.20
2018-12-20T08:14:29.265Z,142.80
2018-12-20T08:17:00.910Z,159.20
2018-12-20T08:19:36.172Z,150.40
2018-12-20T08:22:09.853Z,142.80
2018-12-20T08:24:41.523Z,128.20
2018-12-20T08:27:13.876Z,134.60
2018-12-20T08:29:47.269Z,151.40
2018-12-20T08:32:19.051Z,139.40
2018-12-20T08:34:50.470Z,144.00
2018-12-20T08:37:21.935Z,124.80
2018-12-20T08:39:53.509Z,139.60
2018-12-20T08:42:25.286Z,139.80
2018-12-20T08:44:57.407Z,126.40
2018-12-20T08:47:29.228Z,125.20
2018-12-20T08:50:01.015Z,117.00
2018-12-20T08:52:34.010Z,211.00
2018-12-20T08:55:06.176Z,162.00
2018-12-20T08:57:37.896Z,115.80
2018-12-20T09:00:10.284Z,113.40
2018-12-20T09:02:42.040Z,97.00
2018-12-20T09:08:18.548Z,181.25
2018-12-20T09:10:50.723Z,85.00
2018-12-20T09:13:22.480Z,88.00
2018-12-20T09:15:54.141Z,74.40
2018-12-20T09:18:25.995Z,95.80
2018-12-20T09:21:01.078Z,92.00
2018-12-20T09:23:34.155Z,94.00
2018-12-20T09:26:05.665Z,112.80
2018-12-20T09:28:37.265Z,124.60
2018-12-20T09:31:09.377Z,108.20
2018-12-20T09:33:41.543Z,118.40
2018-12-20T09:36:13.214Z,112.60
2018-12-20T09:38:45.075Z,120.80
2018-12-20T09:41:17.225Z,116.60
2018-12-20T09:43:48.775Z,123.80
2018-12-20T09:46:20.309Z,122.20
2018-12-20T09:48:51.937Z,125.00
2018-12-20T09:51:23.411Z,123.60
2018-12-20T09:53:55.903Z,112.20
2018-12-20T09:56:27.286Z,129.80
2018-12-20T09:58:59.110Z,132.00
2018-12-20T10:01:30.975Z,125.60
2018-12-20T10:04:03.393Z,97.60
2018-12-20T10:06:35.038Z,134.40
2018-12-20T10:09:09.078Z,112.20
2018-12-20T10:11:40.684Z,116.80
2018-12-20T10:14:12.538Z,106.80
2018-12-20T10:16:44.173Z,124.20
2018-12-20T10:19:26.682Z,119.40
2018-12-20T10:21:59.083Z,120.00
2018-12-20T10:24:31.108Z,108.80
2018-12-20T10:27:03.286Z,111.80
2018-12-20T10:29:35.660Z,108.80
2018-12-20T10:32:07.302Z,110.60
2018-12-20T10:34:39.250Z,111.80
2018-12-20T10:37:11.543Z,128.40
2018-12-20T10:39:43.714Z,128.00
2018-12-20T10:42:15.239Z,128.80
2018-12-20T10:44:46.821Z,117.40
2018-12-20T10:47:29.227Z,126.40
2018-12-20T10:49:59.823Z,125.40
2018-12-20T10:52:31.016Z,126.20
2018-12-20T10:55:03.602Z,127.00
2018-12-20T10:57:35.362Z,131.20
2018-12-20T11:00:07.714Z,132.80
2018-12-20T11:02:44.061Z,149.00
2018-12-20T11:05:21.144Z,130.60
2018-12-20T11:07:57.516Z,140.80
2018-12-20T11:10:29.896Z,125.00
2018-12-20T11:13:05.834Z,134.80
2018-12-20T11:15:37.476Z,135.20
2018-12-20T11:18:14.594Z,130.20
2018-12-20T11:20:46.842Z,128.20
2018-12-20T11:23:19.003Z,132.80
2018-12-20T11:25:51.051Z,142.40
2018-12-20T11:28:22.425Z,131.60
2018-12-20T11:30:53.880Z,122.60
2018-12-20T11:33:25.424Z,128.20
2018-12-20T11:35:57.382Z,128.40
2018-12-20T11:38:29.014Z,128.00
2018-12-20T11:41:00.532Z,123.20
2018-12-20T11:43:32.274Z,135.20
2018-12-20T11:46:03.994Z,123.00
2018-12-20T11:48:36.077Z,118.00
2018-12-20T11:51:07.923Z,120.00
2018-12-20T11:53:39.357Z,126.80
2018-12-20T11:56:13.830Z,119.00
2018-12-20T11:58:45.361Z,136.20
2018-12-20T12:01:17.222Z,126.60
2018-12-20T12:03:57.196Z,129.60
2018-12-20T12:06:22.895Z,116.20
2018-12-20T12:08:54.545Z,129.40
2018-12-20T12:11:26.286Z,129.00
2018-12-20T12:13:58.447Z,125.40
2018-12-20T12:16:30.274Z,140.20
2018-12-20T12:19:02.015Z,145.20
2018-12-20T12:21:33.929Z,136.80
2018-12-20T12:24:05.611Z,149.80
2018-12-20T12:26:38.369Z,156.40
2018-12-20T12:29:11.371Z,155.20
2018-12-20T12:31:44.458Z,156.20
2018-12-20T12:34:16.025Z,171.60
2018-12-20T12:36:48.172Z,181.50
2018-12-20T12:39:19.849Z,184.00
2018-12-20T12:41:51.682Z,190.75
2018-12-20T12:44:23.473Z,189.50
2018-12-20T12:46:55.456Z,206.25
2018-12-20T12:49:26.927Z,200.75
2018-12-20T12:51:58.656Z,221.50
2018-12-20T12:54:30.170Z,235.50
2018-12-20T12:57:02.722Z,234.25
2018-12-20T12:59:34.463Z,237.00
2018-12-20T13:02:06.545Z,255.50
2018-12-20T13:04:38.611Z,249.00
2018-12-20T13:07:10.980Z,257.25
2018-12-20T13:09:42.447Z,250.75
2018-12-20T13:12:14.050Z,239.75
2018-12-20T13:14:47.252Z,244.50
2018-12-20T13:17:19.327Z,244.25
2018-12-20T13:19:51.198Z,286.00
2018-12-20T13:22:23.380Z,325.00
2018-12-20T13:24:56.207Z,297.50
2018-12-20T13:27:28.867Z,273.25
2018-12-20T13:30:00.405Z,308.25
2018-12-20T13:32:32.081Z,305.25
2018-12-20T13:35:03.681Z,322.00
2018-12-20T13:37:35.367Z,344.00
2018-12-20T13:40:07.703Z,337.75
2018-12-20T13:42:39.165Z,339.80
2018-12-20T13:45:10.731Z,382.40
2018-12-20T13:47:43.122Z,398.00
2018-12-20T13:50:14.895Z,394.80
2018-12-20T13:52:46.567Z,401.80
2018-12-20T13:55:18.366Z,387.00
2018-12-20T13:57:51.156Z,361.40
2018-12-20T14:00:22.779Z,396.80
2018-12-20T14:02:54.556Z,384.00
2018-12-20T14:05:26.821Z,396.80
2018-12-20T14:07:58.997Z,390.60
2018-12-20T14:10:30.677Z,406.00
2018-12-20T14:13:02.360Z,421.40
2018-12-20T14:15:33.712Z,420.25
2018-12-20T14:18:05.201Z,408.75
2018-12-20T14:20:37.178Z,432.25
2018-12-20T14:23:09.013Z,420.20
2018-12-20T14:25:40.671Z,450.20
2018-12-20T14:28:12.968Z,425.20
2018-12-20T14:30:45.027Z,454.40
2018-12-20T14:33:16.760Z,455.80
2018-12-20T14:35:48.721Z,435.00
2018-12-20T14:38:20.515Z,446.40
2018-12-20T14:40:52.644Z,442.60
2018-12-20T14:43:24.695Z,456.80
2018-12-20T14:45:56.172Z,440.80
2018-12-20T14:48:38.995Z,480.80
2018-12-20T14:51:06.336Z,501.00
2018-12-20T14:53:38.268Z,497.20
2018-12-20T14:56:09.670Z,544.20
2018-12-20T14:58:42.170Z,555.00
2018-12-20T15:01:13.821Z,544.20
2018-12-20T15:03:46.044Z,550.60
2018-12-20T15:06:17.857Z,539.80
2018-12-20T15:08:49.748Z,523.40
2018-12-20T15:11:21.274Z,540.80
2018-12-20T15:13:52.716Z,533.40
2018-12-20T15:16:24.070Z,564.20
2018-12-20T15:18:56.269Z,567.20
2018-12-20T15:21:28.641Z,531.40
2018-12-20T15:24:00.425Z,558.60
2018-12-20T15:26:32.567Z,532.40
2018-12-20T15:29:04.615Z,542.20
2018-12-20T15:31:36.735Z,553.60
2018-12-20T15:34:08.672Z,557.80
2018-12-20T15:36:40.925Z,548.00
2018-12-20T15:39:12.991Z,538.20
2018-12-20T15:41:44.948Z,543.60
2018-12-20T15:44:16.819Z,537.20
2018-12-20T15:46:48.355Z,549.20
2018-12-20T15:49:20.205Z,548.60
2018-12-20T15:51:51.935Z,550.00
2018-12-20T15:54:24.311Z,555.80
2018-12-20T15:56:55.885Z,563.40
2018-12-20T15:59:28.230Z,581.40
2018-12-20T16:01:59.664Z,553.20
2018-12-20T16:04:31.787Z,542.40
2018-12-20T16:07:03.855Z,557.20
2018-12-20T16:09:36.120Z,590.00
2018-12-20T16:12:07.811Z,589.60
2018-12-20T16:14:40.107Z,550.80
2018-12-20T16:17:11.758Z,589.20
2018-12-20T16:19:44.180Z,546.60
2018-12-20T16:22:15.929Z,541.40
2018-12-20T16:24:47.708Z,560.00
2018-12-20T16:27:19.379Z,587.40
2018-12-20T16:29:51.455Z,537.60
2018-12-20T16:32:22.997Z,548.40
2018-12-20T16:34:54.966Z,613.50
2018-12-20T16:37:26.777Z,644.50
2018-12-20T16:39:59.017Z,671.80
2018-12-20T16:42:30.909Z,660.67
2018-12-20T16:45:02.936Z,640.50
2018-12-20T16:47:35.582Z,586.60
2018-12-20T16:50:08.980Z,577.80
2018-12-20T16:52:41.231Z,586.00
2018-12-20T16:55:13.292Z,583.40
2018-12-20T16:57:45.218Z,578.00
2018-12-20T17:00:17.274Z,592.40
2018-12-20T17:02:48.799Z,591.80
2018-12-20T17:05:20.729Z,571.20
2018-12-20T17:07:52.543Z,572.20
2018-12-20T17:10:24.287Z,594.00
2018-12-20T17:12:56.013Z,592.20
2018-12-20T17:15:27.957Z,586.40
2018-12-20T17:17:59.410Z,563.60
2018-12-20T17:20:31.544Z,576.80
2018-12-20T17:23:03.171Z,570.00
2018-12-20T17:25:35.020Z,592.40
2018-12-20T17:28:07.134Z,604.60
2018-12-20T17:30:39.131Z,605.60
2018-12-20T17:33:10.366Z,570.60
2018-12-20T17:35:42.818Z,605.00
2018-12-20T17:38:14.249Z,600.60
2018-12-20T17:40:46.037Z,610.60
2018-12-20T17:43:17.924Z,601.60
2018-12-20T17:45:49.489Z,595.60
2018-12-20T17:48:28.984Z,588.40
2018-12-20T17:50:54.929Z,586.00
2018-12-20T17:53:27.085Z,597.60
2018-12-20T17:55:58.657Z,589.40
2018-12-20T17:58:30.219Z,593.00
2018-12-20T18:01:02.225Z,576.00
2018-12-20T18:03:34.798Z,529.60
2018-12-20T18:06:06.775Z,559.60
2018-12-20T18:08:38.613Z,538.20
2018-12-20T18:11:10.340Z,522.80
2018-12-20T18:13:42.161Z,523.60
2018-12-20T18:16:14.117Z,529.80
2018-12-20T18:18:45.925Z,510.60
2018-12-20T18:21:17.903Z,490.40
2018-12-20T18:23:49.579Z,492.20
2018-12-20T18:26:21.450Z,494.60
2018-12-20T18:28:53.055Z,478.40
2018-12-20T18:31:25.536Z,497.80
2018-12-20T18:33:58.323Z,517.80
2018-12-20T18:36:30.620Z,482.40
2018-12-20T18:39:03.047Z,487.75
2018-12-20T18:41:35.577Z,475.60
2018-12-20T18:44:08.661Z,453.60
2018-12-20T18:46:40.416Z,468.50
2018-12-20T18:49:12.786Z,475.20
2018-12-20T18:51:45.981Z,467.80
2018-12-20T18:54:17.622Z,466.60
2018-12-20T18:56:50.096Z,463.60
2018-12-20T18:59:22.316Z,422.40
2018-12-20T19:01:54.386Z,406.75
2018-12-20T19:04:26.120Z,424.60
2018-12-20T19:06:57.811Z,427.00
2018-12-20T19:09:29.781Z,413.40
2018-12-20T19:12:02.426Z,420.75
2018-12-20T19:14:34.491Z,395.00
2018-12-20T19:17:06.505Z,414.50
2018-12-20T19:19:38.890Z,407.50
2018-12-20T19:22:10.951Z,414.50
2018-12-20T19:24:42.777Z,387.50
2018-12-20T19:27:14.163Z,403.25
2018-12-20T19:29:45.869Z,342.75
2018-12-20T19:32:17.673Z,329.00
2018-12-20T19:34:49.326Z,335.25
2018-12-20T19:37:20.929Z,328.00
2018-12-20T19:39:58.770Z,337.25
2018-12-20T19:42:30.429Z,328.25
2018-12-20T19:45:01.940Z,311.00
2018-12-20T19:47:34.042Z,308.50
2018-12-20T19:50:06.009Z,295.25
2018-12-20T19:52:38.016Z,299.25
2018-12-20T19:55:09.995Z,282.50
2018-12-20T19:57:42.006Z,297.50
2018-12-20T20:00:16.355Z,283.00
2018-12-20T20:02:48.630Z,297.75
2018-12-20T20:05:20.760Z,297.00
2018-12-20T20:07:52.461Z,302.25
2018-12-20T20:10:24.607Z,285.25
2018-12-20T20:12:56.772Z,281.50
2018-12-20T20:15:28.801Z,281.25
2018-12-20T20:18:00.716Z,284.25
2018-12-20T20:20:32.634Z,273.00
2018-12-20T20:23:04.319Z,254.00
2018-12-20T20:25:36.474Z,282.25
2018-12-20T20:28:08.240Z,273.75
2018-12-20T20:30:40.076Z,263.25
2018-12-20T20:33:12.157Z,265.50
2018-12-20T20:35:44.437Z,269.75
2018-12-20T20:38:15.913Z,259.75
2018-12-20T20:40:47.975Z,252.75
2018-12-20T20:43:19.712Z,256.25
2018-12-20T20:45:51.822Z,278.25
2018-12-20T20:48:23.907Z,268.00
2018-12-20T20:50:56.297Z,273.25
2018-12-20T20:53:27.982Z,260.50
2018-12-20T20:55:59.962Z,260.50
2018-12-20T20:58:32.596Z,279.00
2018-12-20T21:01:04.537Z,266.00
2018-12-20T21:03:36.858Z,253.50
2018-12-20T21:06:08.618Z,256.25
2018-12-20T21:08:40.470Z,251.75
2018-12-20T21:11:12.264Z,247.50
2018-12-20T21:13:44.214Z,242.25
2018-12-20T21:16:16.071Z,261.25
2018-12-20T21:18:47.765Z,253.50
2018-12-20T21:21:19.815Z,251.00
2018-12-20T21:23:51.841Z,255.00
2018-12-20T21:26:23.892Z,241.50
2018-12-20T21:28:55.660Z,234.25
2018-12-20T21:31:27.344Z,230.00
2018-12-20T21:33:59.496Z,238.50
2018-12-20T21:36:31.616Z,254.75
2018-12-20T21:39:04.817Z,249.00
2018-12-20T21:41:36.961Z,240.00
2018-12-20T21:44:08.582Z,234.75
2018-12-20T21:46:40.744Z,245.75
2018-12-20T21:49:13.043Z,224.50
2018-12-20T21:51:44.748Z,226.50
2018-12-20T21:54:16.304Z,217.50
2018-12-20T21:56:48.283Z,230.25
2018-12-20T21:59:21.110Z,216.50
2018-12-20T22:01:53.217Z,214.50
2018-12-20T22:04:25.766Z,226.50
2018-12-20T22:06:57.298Z,232.00
2018-12-20T22:09:28.913Z,229.50
2018-12-20T22:12:00.916Z,231.00
2018-12-20T22:14:32.426Z,228.00
2018-12-20T22:17:04.370Z,243.75
2018-12-20T22:19:36.115Z,236.00
2018-12-20T22:22:07.778Z,238.75
2018-12-20T22:24:39.316Z,236.00
2018-12-20T22:27:11.349Z,242.25
2018-12-20T22:29:43.766Z,244.25
2018-12-20T22:32:15.435Z,243.00
2018-12-20T22:34:47.533Z,243.75
2018-12-20T22:37:19.454Z,245.50
2018-12-20T22:39:51.077Z,255.50
2018-12-20T22:42:22.937Z,262.25
2018-12-20T22:44:54.833Z,254.50
2018-12-20T22:47:26.546Z,259.00
2018-12-20T22:49:58.113Z,272.00
2018-12-20T22:52:29.759Z,265.25
2018-12-20T22:55:01.567Z,285.00
2018-12-20T22:57:33.474Z,294.00
2018-12-20T23:00:06.455Z,287.00
2018-12-20T23:02:38.703Z,306.25
2018-12-20T23:05:10.886Z,305.75
2018-12-20T23:07:42.991Z,294.50
2018-12-20T23:10:16.008Z,317.25
2018-12-20T23:12:47.999Z,318.75
2018-12-20T23:15:19.522Z,313.75
2018-12-20T23:17:51.245Z,292.25
2018-12-20T23:20:22.835Z,304.25
2018-12-20T23:22:54.591Z,301.75
2018-12-20T23:25:26.431Z,319.25
2018-12-20T23:27:59.167Z,322.50
2018-12-20T23:30:30.895Z,329.75
2018-12-20T23:33:02.640Z,293.50
2018-12-20T23:35:34.822Z,307.75
2018-12-20T23:38:06.661Z,300.25
2018-12-20T23:40:38.212Z,279.00
2018-12-20T23:43:10.063Z,273.25
2018-12-20T23:45:41.966Z,298.25
2018-12-20T23:48:13.692Z,274.50
2018-12-20T23:50:45.501Z,277.50
2018-12-20T23:53:17.218Z,262.00
2018-12-20T23:55:48.683Z,272.50
2018-12-20T23:58:20.758Z,274.25
